createdAt,value
2022-08-19T00:01:28.646Z,12.10
2022-08-19T00:04:01.718Z,11.73
2022-08-19T00:06:29.336Z,12.63
2022-08-19T00:08:56.852Z,12.17
2022-08-19T00:11:25.507Z,11.40
2022-08-19T00:13:53.300Z,11.70
2022-08-19T00:16:26.105Z,11.53
2022-08-19T00:18:54.605Z,12.03
2022-08-19T00:21:21.735Z,12.23
2022-08-19T00:23:48.960Z,12.47
2022-08-19T00:26:16.198Z,11.57
2022-08-19T00:28:43.425Z,11.40
2022-08-19T00:31:10.885Z,12.03
2022-08-19T00:33:38.292Z,10.80
2022-08-19T00:36:07.418Z,11.97
2022-08-19T00:38:38.304Z,11.33
2022-08-19T00:41:08.462Z,12.03
2022-08-19T00:43:35.944Z,12.00
2022-08-19T00:46:05.597Z,11.57
2022-08-19T00:48:34.409Z,13.10
2022-08-19T00:51:02.109Z,13.63
2022-08-19T00:53:30.158Z,12.87
2022-08-19T00:55:59.673Z,13.57
2022-08-19T00:58:28.617Z,12.47
2022-08-19T01:00:55.747Z,13.23
2022-08-19T01:03:23.304Z,12.17
2022-08-19T01:05:51.560Z,12.80
2022-08-19T01:08:19.508Z,12.53
2022-08-19T01:10:48.726Z,12.13
2022-08-19T01:13:17.411Z,12.47
2022-08-19T01:15:46.637Z,12.57
2022-08-19T01:18:15.163Z,13.33
2022-08-19T01:20:42.888Z,13.13
2022-08-19T01:23:10.163Z,13.10
2022-08-19T01:25:43.292Z,13.53
2022-08-19T01:28:34.051Z,13.77
2022-08-19T01:31:08.385Z,13.83
2022-08-19T01:33:35.625Z,14.57
2022-08-19T01:36:26.980Z,13.70
2022-08-19T01:38:54.879Z,13.97
2022-08-19T01:41:24.419Z,14.17
2022-08-19T01:44:09.803Z,14.70
2022-08-19T01:46:40.203Z,14.87
2022-08-19T01:49:07.500Z,14.67
2022-08-19T01:51:39.732Z,14.80
2022-08-19T01:54:07.417Z,15.23
2022-08-19T01:56:34.575Z,15.90
2022-08-19T01:59:03.325Z,14.90
2022-08-19T02:01:32.835Z,15.63
2022-08-19T02:04:01.569Z,15.50
2022-08-19T02:06:29.293Z,17.27
2022-08-19T02:08:57.218Z,16.70
2022-08-19T02:11:35.023Z,16.73
2022-08-19T02:14:03.203Z,15.70
2022-08-19T02:16:31.318Z,17.17
2022-08-19T02:19:01.321Z,16.33
2022-08-19T02:21:28.991Z,15.87
2022-08-19T02:23:56.344Z,15.87
2022-08-19T02:26:24.364Z,15.53
2022-08-19T02:28:51.541Z,15.87
2022-08-19T02:31:20.120Z,16.00
2022-08-19T02:33:47.804Z,15.50
2022-08-19T02:36:15.965Z,16.47
2022-08-19T02:38:43.206Z,15.27
2022-08-19T02:41:23.412Z,15.67
2022-08-19T02:44:26.448Z,16.17
2022-08-19T02:46:40.911Z,15.90
2022-08-19T02:49:08.885Z,16.93
2022-08-19T02:51:37.523Z,15.60
2022-08-19T02:54:05.870Z,16.77
2022-08-19T02:56:32.988Z,16.97
2022-08-19T02:59:00.333Z,16.37
2022-08-19T03:01:33.925Z,16.90
2022-08-19T03:04:02.056Z,17.33
2022-08-19T03:06:29.554Z,17.43
2022-08-19T03:08:56.679Z,18.07
2022-08-19T03:11:29.066Z,17.77
2022-08-19T03:13:56.537Z,17.43
2022-08-19T03:16:25.657Z,17.97
2022-08-19T03:18:53.826Z,18.90
2022-08-19T03:21:22.369Z,17.87
2022-08-19T03:23:49.919Z,17.70
2022-08-19T03:26:17.392Z,17.63
2022-08-19T03:28:51.580Z,15.07
2022-08-19T03:31:43.871Z,15.23
2022-08-19T03:34:16.656Z,16.53
2022-08-19T03:36:43.859Z,16.47
2022-08-19T03:39:11.338Z,15.67
2022-08-19T03:41:44.384Z,16.00
2022-08-19T03:44:17.828Z,16.03
2022-08-19T03:46:46.238Z,15.83
2022-08-19T03:49:18.443Z,16.43
2022-08-19T03:51:46.536Z,15.70
2022-08-19T03:54:15.166Z,15.80
2022-08-19T03:56:43.005Z,16.33
2022-08-19T03:59:11.691Z,16.77
2022-08-19T04:01:38.886Z,17.03
2022-08-19T04:04:06.496Z,17.43
2022-08-19T04:06:35.937Z,17.17
2022-08-19T04:09:07.890Z,18.23
2022-08-19T04:11:44.952Z,18.27
2022-08-19T04:14:17.544Z,17.60
2022-08-19T04:16:45.488Z,17.93
2022-08-19T04:19:13.115Z,17.93
2022-08-19T04:21:40.318Z,19.80
2022-08-19T04:24:08.148Z,20.90
2022-08-19T04:26:36.383Z,20.93
2022-08-19T04:29:09.206Z,22.93
2022-08-19T04:31:39.119Z,35.47
2022-08-19T04:34:07.569Z,39.20
2022-08-19T04:36:37.833Z,26.73
2022-08-19T04:39:06.669Z,21.87
2022-08-19T04:41:52.965Z,20.80
2022-08-19T04:44:20.373Z,21.97
2022-08-19T04:46:51.213Z,22.13
2022-08-19T04:49:20.002Z,20.80
2022-08-19T04:51:50.837Z,20.03
2022-08-19T04:54:33.810Z,20.10
2022-08-19T04:57:07.529Z,20.10
2022-08-19T04:59:34.777Z,19.00
2022-08-19T05:02:02.074Z,19.00
2022-08-19T05:04:32.618Z,19.03
2022-08-19T05:07:01.382Z,19.60
2022-08-19T05:09:55.776Z,22.93
2022-08-19T05:12:16.828Z,35.47
2022-08-19T05:14:46.449Z,31.43
2022-08-19T05:17:31.246Z,19.40
2022-08-19T05:20:19.179Z,22.37
2022-08-19T05:22:47.073Z,22.13
2022-08-19T05:25:15.916Z,25.27
2022-08-19T05:27:43.637Z,24.13
2022-08-19T05:30:11.423Z,25.37
2022-08-19T05:32:38.892Z,24.70
2022-08-19T05:35:06.561Z,25.17
2022-08-19T05:37:33.705Z,25.43
2022-08-19T05:40:00.986Z,39.73
2022-08-19T05:42:28.146Z,34.23
2022-08-19T05:44:56.886Z,27.70
2022-08-19T05:47:24.086Z,27.60
2022-08-19T05:49:51.854Z,27.30
2022-08-19T05:52:25.823Z,28.57
2022-08-19T05:54:55.818Z,28.43
2022-08-19T05:57:23.973Z,29.03
2022-08-19T05:59:54.919Z,28.70
2022-08-19T06:02:25.835Z,28.37
2022-08-19T06:04:53.054Z,31.03
2022-08-19T06:07:20.413Z,31.23
2022-08-19T06:09:54.377Z,33.33
2022-08-19T06:12:32.198Z,30.53
2022-08-19T06:15:01.943Z,31.90
2022-08-19T06:17:31.078Z,32.43
2022-08-19T06:19:59.187Z,32.90
2022-08-19T06:22:26.347Z,33.50
2022-08-19T06:24:53.606Z,30.97
2022-08-19T06:27:21.070Z,31.40
2022-08-19T06:29:48.367Z,32.60
2022-08-19T06:32:17.262Z,32.73
2022-08-19T06:34:44.704Z,31.93
2022-08-19T06:37:12.775Z,33.57
2022-08-19T06:39:40.823Z,32.70
2022-08-19T06:42:11.062Z,32.13
2022-08-19T06:44:43.375Z,45.53
2022-08-19T06:47:14.266Z,37.23
2022-08-19T06:49:42.729Z,32.43
2022-08-19T06:52:13.715Z,30.57
2022-08-19T06:54:55.632Z,29.40
2022-08-19T06:57:24.667Z,28.90
2022-08-19T06:59:52.028Z,27.63
2022-08-19T07:02:19.591Z,28.13
2022-08-19T07:04:46.945Z,28.17
2022-08-19T07:07:21.111Z,26.93
2022-08-19T07:09:57.292Z,27.97
2022-08-19T07:12:28.043Z,27.30
2022-08-19T07:14:56.813Z,29.13
2022-08-19T07:17:25.223Z,29.83
2022-08-19T07:19:54.327Z,30.27
2022-08-19T07:22:24.409Z,37.67
2022-08-19T07:24:52.443Z,35.40
2022-08-19T07:27:24.419Z,33.23
2022-08-19T07:29:56.044Z,32.87
2022-08-19T07:32:26.765Z,33.53
2022-08-19T07:34:53.971Z,33.80
2022-08-19T07:37:21.196Z,35.30
2022-08-19T07:39:48.478Z,36.03
2022-08-19T07:42:15.819Z,36.33
2022-08-19T07:44:49.934Z,35.33
2022-08-19T07:47:49.775Z,36.00
2022-08-19T07:50:08.013Z,37.23
2022-08-19T07:52:37.128Z,36.17
2022-08-19T07:55:05.128Z,36.27
2022-08-19T07:57:32.358Z,35.93
2022-08-19T08:00:00.365Z,36.27
2022-08-19T08:02:27.512Z,37.33
2022-08-19T08:05:13.547Z,37.97
2022-08-19T08:07:59.554Z,36.93
2022-08-19T08:10:26.875Z,36.10
2022-08-19T08:13:09.464Z,37.53
2022-08-19T08:15:42.809Z,37.67
2022-08-19T08:18:11.057Z,36.97
2022-08-19T08:20:38.236Z,36.30
2022-08-19T08:23:24.608Z,36.70
2022-08-19T08:25:51.812Z,36.53
2022-08-19T08:28:19.440Z,35.87
2022-08-19T08:30:48.298Z,35.67
2022-08-19T08:33:19.970Z,34.77
2022-08-19T08:36:01.937Z,33.40
2022-08-19T08:38:38.409Z,33.07
2022-08-19T08:41:22.896Z,28.83
2022-08-19T08:43:52.829Z,30.40
2022-08-19T08:46:31.793Z,27.77
2022-08-19T08:49:02.780Z,29.30
2022-08-19T08:54:12.715Z,23.77
2022-08-19T08:56:41.211Z,23.47
2022-08-19T08:59:21.805Z,20.97
2022-08-19T09:01:49.521Z,20.80
2022-08-19T09:04:16.894Z,24.13
2022-08-19T09:07:17.988Z,19.17
2022-08-19T09:09:48.199Z,15.93
2022-08-19T09:12:35.243Z,14.37
2022-08-19T09:15:05.127Z,14.10
2022-08-19T09:17:34.359Z,13.77
2022-08-19T09:20:23.997Z,12.40
2022-08-19T09:22:53.430Z,11.75
2022-08-19T09:25:26.689Z,12.80
2022-08-19T09:28:03.114Z,10.13
2022-08-19T09:30:34.520Z,8.98
2022-08-19T09:33:02.149Z,10.13
2022-08-19T09:35:30.084Z,10.73
2022-08-19T09:37:59.387Z,9.25
2022-08-19T09:40:27.780Z,10.70
2022-08-19T09:42:58.615Z,9.88
2022-08-19T09:45:25.832Z,9.70
2022-08-19T09:47:55.070Z,9.95
2022-08-19T09:50:23.683Z,11.82
2022-08-19T09:52:55.586Z,9.85
2022-08-19T09:55:25.101Z,11.27
2022-08-19T09:57:58.478Z,10.10
2022-08-19T10:00:25.680Z,11.07
2022-08-19T10:02:53.232Z,11.80
2022-08-19T10:05:39.167Z,12.38
2022-08-19T10:08:13.847Z,17.42
2022-08-19T10:10:46.713Z,12.27
2022-08-19T10:13:15.064Z,17.38
2022-08-19T10:15:47.780Z,12.80
2022-08-19T10:18:19.075Z,13.73
2022-08-19T10:20:51.322Z,12.75
2022-08-19T10:23:19.422Z,15.95
2022-08-19T10:25:46.693Z,13.52
2022-08-19T10:28:15.462Z,14.63
2022-08-19T10:30:42.959Z,14.73
2022-08-19T10:33:11.018Z,13.82
2022-08-19T10:35:56.308Z,16.10
2022-08-19T10:38:29.953Z,15.02
2022-08-19T10:40:59.573Z,13.48
2022-08-19T10:43:27.114Z,15.10
2022-08-19T10:45:57.551Z,15.68
2022-08-19T10:48:24.672Z,12.20
2022-08-19T10:51:10.600Z,15.13
2022-08-19T10:53:50.097Z,15.93
2022-08-19T10:56:36.500Z,15.43
2022-08-19T10:59:04.120Z,15.90
2022-08-19T11:01:33.948Z,15.93
2022-08-19T11:04:02.130Z,16.38
2022-08-19T11:06:30.228Z,17.60
2022-08-19T11:08:57.856Z,16.23
2022-08-19T11:11:24.965Z,17.20
2022-08-19T11:13:52.298Z,15.50
2022-08-19T11:16:21.153Z,16.73
2022-08-19T11:18:50.519Z,18.38
2022-08-19T11:21:22.874Z,16.02
2022-08-19T11:23:51.204Z,20.00
2022-08-19T11:26:19.264Z,16.10
2022-08-19T11:28:47.033Z,17.00
2022-08-19T11:31:15.175Z,17.40
2022-08-19T11:33:42.679Z,18.65
2022-08-19T11:36:15.350Z,18.77
2022-08-19T11:38:43.352Z,17.10
2022-08-19T11:41:10.508Z,19.83
2022-08-19T11:43:37.869Z,18.38
2022-08-19T11:46:17.249Z,18.95
2022-08-19T11:48:45.094Z,18.30
2022-08-19T11:51:14.082Z,16.17
2022-08-19T11:53:41.591Z,17.52
2022-08-19T11:56:09.625Z,19.48
2022-08-19T11:58:36.831Z,17.42
2022-08-19T12:01:08.076Z,16.48
2022-08-19T12:03:35.456Z,16.52
2022-08-19T12:06:13.796Z,16.48
2022-08-19T12:08:43.958Z,16.63
2022-08-19T12:11:11.916Z,15.80
2022-08-19T12:13:39.869Z,19.98
2022-08-19T12:16:13.218Z,19.55
2022-08-19T12:18:43.616Z,13.95
2022-08-19T12:21:11.973Z,12.93
2022-08-19T12:23:39.397Z,13.73
2022-08-19T12:26:06.508Z,12.43
2022-08-19T12:28:33.743Z,13.40
2022-08-19T12:31:00.912Z,13.30
2022-08-19T12:33:29.332Z,11.15
2022-08-19T12:36:01.469Z,12.27
2022-08-19T12:38:28.599Z,16.13
2022-08-19T12:41:00.062Z,14.98
2022-08-19T12:43:27.517Z,13.77
2022-08-19T12:45:54.909Z,13.85
2022-08-19T12:48:33.401Z,13.63
2022-08-19T12:51:02.827Z,11.63
2022-08-19T12:53:29.981Z,12.65
2022-08-19T12:55:58.125Z,10.52
2022-08-19T12:58:27.367Z,11.75
2022-08-19T13:00:55.184Z,10.68
2022-08-19T13:03:28.271Z,11.95
2022-08-19T13:05:55.405Z,10.13
2022-08-19T13:08:22.648Z,11.00
2022-08-19T13:10:51.715Z,11.48
2022-08-19T13:13:18.855Z,9.63
2022-08-19T13:15:46.238Z,11.07
2022-08-19T13:18:14.135Z,12.70
2022-08-19T13:20:42.980Z,11.00
2022-08-19T13:23:20.323Z,10.48
2022-08-19T13:25:56.717Z,10.80
2022-08-19T13:28:29.080Z,9.38
2022-08-19T13:31:15.011Z,9.40
2022-08-19T13:33:42.132Z,9.00
2022-08-19T13:36:09.273Z,8.88
2022-08-19T13:38:38.898Z,8.70
2022-08-19T13:41:11.099Z,10.45
2022-08-19T13:43:39.393Z,9.95
2022-08-19T13:46:10.524Z,10.38
2022-08-19T13:48:37.657Z,9.80
2022-08-19T13:51:06.381Z,9.38
2022-08-19T13:53:33.522Z,9.75
2022-08-19T13:56:00.693Z,10.38
2022-08-19T13:58:27.864Z,10.90
2022-08-19T14:00:55.096Z,9.73
2022-08-19T14:03:22.285Z,10.77
2022-08-19T14:05:49.394Z,9.82
2022-08-19T14:08:16.621Z,10.38
2022-08-19T14:10:45.467Z,13.50
2022-08-19T14:13:15.104Z,7.75
2022-08-19T14:15:42.200Z,5.88
2022-08-19T14:18:09.288Z,6.05
2022-08-19T14:20:36.778Z,5.20
2022-08-19T14:23:06.045Z,5.70
2022-08-19T14:25:33.343Z,6.03
2022-08-19T14:28:00.716Z,5.03
2022-08-19T14:30:35.696Z,4.57
2022-08-19T14:33:03.421Z,3.60
2022-08-19T14:35:33.445Z,3.13
2022-08-19T14:38:00.828Z,2.70
2022-08-19T14:40:29.373Z,2.97
2022-08-19T14:43:00.166Z,2.78
2022-08-19T14:45:30.405Z,2.60
2022-08-19T14:47:57.637Z,2.88
2022-08-19T14:50:24.853Z,2.75
2022-08-19T14:52:58.793Z,2.67
2022-08-19T14:55:27.231Z,2.70
2022-08-19T14:57:54.381Z,3.20
2022-08-19T15:00:21.684Z,2.95
2022-08-19T15:02:48.799Z,2.80
2022-08-19T15:05:16.156Z,2.53
2022-08-19T15:07:43.625Z,2.50
2022-08-19T15:10:11.573Z,2.70
2022-08-19T15:12:43.209Z,2.60
2022-08-19T15:15:13.613Z,2.45
2022-08-19T15:17:46.153Z,2.60
2022-08-19T15:20:16.764Z,2.78
2022-08-19T15:22:43.905Z,2.85
2022-08-19T15:25:12.066Z,3.15
2022-08-19T15:27:39.871Z,3.28
2022-08-19T15:30:09.060Z,2.53
2022-08-19T15:32:36.772Z,2.25
2022-08-19T15:35:04.592Z,2.55
2022-08-19T15:37:31.719Z,2.20
2022-08-19T15:39:58.958Z,2.03
2022-08-19T15:42:29.614Z,2.25
2022-08-19T15:45:00.612Z,1.83
2022-08-19T15:47:34.557Z,1.80
2022-08-19T15:50:06.037Z,2.25
2022-08-19T15:52:33.244Z,2.25
2022-08-19T15:55:02.152Z,1.85
2022-08-19T15:57:29.249Z,1.80
2022-08-19T16:00:15.152Z,1.80
2022-08-19T16:03:02.465Z,1.90
2022-08-19T16:05:48.903Z,2.10
2022-08-19T16:08:16.098Z,2.00
2022-08-19T16:10:43.347Z,2.38
2022-08-19T16:13:10.867Z,2.30
2022-08-19T16:15:39.252Z,2.15
2022-08-19T16:18:06.647Z,2.15
2022-08-19T16:20:35.703Z,2.10
2022-08-19T16:23:04.799Z,2.92
2022-08-19T16:25:31.937Z,2.85
2022-08-19T16:28:07.828Z,2.72
2022-08-19T16:30:36.032Z,2.20
2022-08-19T16:33:03.196Z,2.00
2022-08-19T16:35:30.395Z,2.22
2022-08-19T16:38:15.897Z,5.93
2022-08-19T16:40:46.675Z,3.13
2022-08-19T16:43:13.974Z,2.28
2022-08-19T16:45:41.069Z,2.33
2022-08-19T16:48:11.503Z,4.85
2022-08-19T16:50:49.148Z,28.35
2022-08-19T16:53:21.056Z,2.53
2022-08-19T16:55:53.944Z,2.90
2022-08-19T16:58:29.126Z,3.40
2022-08-19T17:01:00.753Z,2.45
2022-08-19T17:03:37.005Z,2.95
2022-08-19T17:06:18.390Z,2.47
2022-08-19T17:08:49.092Z,2.20
2022-08-19T17:11:18.618Z,2.42
2022-08-19T17:13:47.589Z,2.50
2022-08-19T17:16:15.400Z,2.30
2022-08-19T17:18:42.537Z,2.17
2022-08-19T17:21:09.693Z,2.00
2022-08-19T17:23:42.663Z,2.40
2022-08-19T17:26:14.122Z,2.40
2022-08-19T17:28:44.562Z,2.38
2022-08-19T17:31:12.114Z,2.42
2022-08-19T17:33:41.401Z,2.25
2022-08-19T17:36:09.016Z,2.30
2022-08-19T17:38:37.289Z,2.70
2022-08-19T17:41:05.824Z,2.53
2022-08-19T17:43:37.934Z,20.33
2022-08-19T17:46:11.021Z,2.45
2022-08-19T17:48:42.249Z,2.65
2022-08-19T17:51:18.702Z,1.90
2022-08-19T17:53:50.623Z,2.00
2022-08-19T17:56:18.312Z,2.00
2022-08-19T17:58:57.711Z,1.90
2022-08-19T18:01:44.122Z,1.60
2022-08-19T18:04:16.941Z,1.50
2022-08-19T18:06:45.730Z,2.00
2022-08-19T18:09:20.662Z,1.58
2022-08-19T18:11:52.732Z,1.55
2022-08-19T18:14:20.613Z,1.80
2022-08-19T18:16:47.944Z,1.73
2022-08-19T18:19:15.062Z,1.48
2022-08-19T18:21:42.215Z,1.95
2022-08-19T18:24:21.385Z,1.52
2022-08-19T18:26:49.180Z,1.40
2022-08-19T18:29:16.301Z,1.70
2022-08-19T18:31:43.595Z,2.08
2022-08-19T18:34:11.101Z,50.08
2022-08-19T18:36:56.547Z,14.10
2022-08-19T18:39:45.149Z,2.35
2022-08-19T18:42:37.577Z,1.60
2022-08-19T18:45:24.201Z,1.52
2022-08-19T18:48:18.488Z,1.50
2022-08-19T18:50:55.652Z,1.70
2022-08-19T18:53:24.850Z,1.70
2022-08-19T18:55:55.883Z,2.30
2022-08-19T18:58:26.737Z,2.40
2022-08-19T19:00:57.416Z,2.58
2022-08-19T19:03:27.257Z,2.47
2022-08-19T19:05:56.982Z,2.20
2022-08-19T19:08:27.043Z,1.80
2022-08-19T19:10:56.502Z,2.50
2022-08-19T19:13:24.982Z,3.00
2022-08-19T19:15:54.315Z,3.00
2022-08-19T19:18:21.473Z,2.78
2022-08-19T19:20:48.565Z,2.40
2022-08-19T19:23:15.692Z,2.55
2022-08-19T19:25:50.750Z,2.80
2022-08-19T19:28:23.768Z,2.30
2022-08-19T19:30:50.928Z,2.40
2022-08-19T19:33:18.616Z,2.28
2022-08-19T19:35:47.156Z,2.17
2022-08-19T19:38:23.832Z,2.00
2022-08-19T19:40:50.950Z,4.38
2022-08-19T19:43:18.134Z,2.05
2022-08-19T19:46:03.753Z,1.83
2022-08-19T19:48:53.789Z,1.70
2022-08-19T19:51:24.111Z,1.90
2022-08-19T19:53:52.346Z,1.80
2022-08-19T19:56:19.844Z,2.17
2022-08-19T19:58:50.316Z,2.40
2022-08-19T20:01:24.755Z,1.90
2022-08-19T20:03:54.348Z,1.80
2022-08-19T20:06:21.879Z,1.37
2022-08-19T20:09:07.704Z,1.50
2022-08-19T20:11:36.215Z,1.70
2022-08-19T20:14:05.368Z,1.40
2022-08-19T20:16:33.103Z,1.70
2022-08-19T20:19:01.568Z,1.50
2022-08-19T20:21:32.298Z,1.40
2022-08-19T20:24:10.078Z,1.77
2022-08-19T20:26:37.902Z,1.80
2022-08-19T20:29:13.646Z,2.80
2022-08-19T20:31:59.390Z,2.07
2022-08-19T20:34:27.372Z,1.90
2022-08-19T20:36:54.532Z,5.13
2022-08-19T20:39:21.632Z,2.50
2022-08-19T20:41:48.745Z,1.40
2022-08-19T20:44:16.014Z,1.47
2022-08-19T20:46:43.144Z,1.63
2022-08-19T20:49:22.953Z,1.50
2022-08-19T20:51:54.687Z,9.70
2022-08-19T20:54:21.839Z,4.23
2022-08-19T20:56:48.993Z,10.73
2022-08-19T20:59:16.195Z,21.40
2022-08-19T21:01:43.388Z,12.40
2022-08-19T21:04:10.521Z,3.67
2022-08-19T21:06:38.514Z,2.30
2022-08-19T21:09:05.879Z,1.70
2022-08-19T21:11:32.994Z,1.67
2022-08-19T21:14:01.218Z,1.60
2022-08-19T21:16:28.378Z,1.70
2022-08-19T21:18:55.505Z,1.70
2022-08-19T21:21:22.604Z,3.03
2022-08-19T21:23:49.798Z,1.93
2022-08-19T21:26:17.033Z,1.90
2022-08-19T21:28:44.300Z,1.70
2022-08-19T21:31:11.473Z,1.60
2022-08-19T21:33:39.325Z,1.67
2022-08-19T21:36:06.677Z,2.00
2022-08-19T21:38:33.956Z,1.80
2022-08-19T21:41:05.944Z,1.90
2022-08-19T21:43:33.576Z,1.80
2022-08-19T21:46:00.652Z,1.80
2022-08-19T21:48:28.172Z,1.80
2022-08-19T21:50:55.264Z,2.20
2022-08-19T21:53:22.828Z,2.10
2022-08-19T21:55:53.490Z,2.00
2022-08-19T21:58:28.118Z,2.10
2022-08-19T22:00:57.749Z,1.80
2022-08-19T22:03:25.778Z,2.00
2022-08-19T22:05:53.037Z,2.10
2022-08-19T22:08:20.162Z,1.90
2022-08-19T22:10:49.461Z,1.90
2022-08-19T22:13:18.022Z,2.40
2022-08-19T22:15:45.702Z,3.00
2022-08-19T22:18:13.660Z,2.30
2022-08-19T22:20:40.806Z,4.43
2022-08-19T22:23:08.275Z,2.87
2022-08-19T22:25:37.453Z,2.40
2022-08-19T22:28:14.639Z,1.80
2022-08-19T22:30:47.044Z,1.80
2022-08-19T22:33:17.323Z,2.30
2022-08-19T22:35:44.920Z,2.50
2022-08-19T22:38:12.687Z,2.20
2022-08-19T22:40:41.649Z,1.60
2022-08-19T22:43:08.741Z,1.70
2022-08-19T22:45:38.680Z,1.70
2022-08-19T22:48:09.836Z,1.80
2022-08-19T22:50:38.201Z,1.90
2022-08-19T22:53:07.328Z,1.70
2022-08-19T22:55:35.574Z,2.00
2022-08-19T22:58:02.714Z,2.60
2022-08-19T23:00:30.565Z,1.80
2022-08-19T23:02:58.588Z,1.80
2022-08-19T23:05:27.900Z,1.80
2022-08-19T23:07:57.079Z,2.07
2022-08-19T23:10:27.351Z,2.43
2022-08-19T23:12:56.188Z,6.90
2022-08-19T23:15:25.634Z,2.33
2022-08-19T23:17:53.883Z,4.40
2022-08-19T23:20:21.602Z,1.87
2022-08-19T23:22:50.823Z,2.30
2022-08-19T23:25:19.820Z,2.30
2022-08-19T23:28:07.299Z,2.10
2022-08-19T23:30:35.221Z,1.90
2022-08-19T23:33:12.330Z,2.27
2022-08-19T23:35:40.982Z,1.93
2022-08-19T23:38:09.073Z,1.90
2022-08-19T23:40:37.133Z,2.27
2022-08-19T23:43:08.200Z,3.30
2022-08-19T23:45:39.613Z,4.20
2022-08-19T23:48:07.290Z,4.50
2022-08-19T23:50:34.866Z,3.13
2022-08-19T23:53:02.069Z,2.43
2022-08-19T23:55:30.628Z,2.70
2022-08-19T23:57:58.096Z,3.80
